Time;durP1;ratioP1;P1;durP2;ratioP2;P2;SDS_P1;SDS_P2;PMS_P1;PMS_P2;Temp;Humidity;BMP_temperature;BMP_pressure;BME280_temperature;BME280_humidity;BME280_pressure;Samples;Min_cycle;Max_cycle;Signal;HPM_P1;HPM_P2
2021/12/07 09:23:13;;;;;;;32.03;18.58;;;3.60;99.90;;;;;;5170695;27;20317;-68
2021/12/07 09:25:40;;;;;;;29.08;17.10;;;3.70;99.90;;;;;;5150323;27;20094;-69
2021/12/07 09:28:06;;;;;;;29.55;18.13;;;3.80;99.90;;;;;;5141516;27;20033;-69
2021/12/07 09:30:32;;;;;;;30.95;18.42;;;4.10;99.90;;;;;;5129330;27;20027;-68
2021/12/07 09:32:58;;;;;;;27.38;17.30;;;4.30;99.90;;;;;;5124444;27;20015;-72
2021/12/07 09:35:24;;;;;;;31.75;18.85;;;4.40;99.90;;;;;;5126098;27;20023;-71
2021/12/07 09:37:52;;;;;;;32.00;18.48;;;4.40;99.90;;;;;;5138296;27;20023;-73
2021/12/07 09:40:23;;;;;;;27.52;18.02;;;4.50;99.90;;;;;;5128428;28;20026;-67
2021/12/07 09:42:49;;;;;;;28.88;18.63;;;4.80;99.90;;;;;;5127300;28;20031;-70
2021/12/07 09:45:17;;;;;;;24.63;15.63;;;4.70;99.90;;;;;;5124597;28;20358;-71
2021/12/07 09:47:44;;;;;;;25.13;15.02;;;4.80;99.90;;;;;;5128293;27;20027;-70
2021/12/07 09:50:14;;;;;;;29.20;18.00;;;4.90;99.90;;;;;;5134810;27;20106;-67
2021/12/07 09:52:40;;;;;;;28.00;16.70;;;4.90;99.90;;;;;;5135635;27;20052;-70
2021/12/07 09:55:06;;;;;;;25.52;16.40;;;5.10;99.90;;;;;;5118630;28;20420;-67
2021/12/07 09:57:32;;;;;;;30.95;18.40;;;5.20;99.90;;;;;;5118415;28;20064;-65
2021/12/07 09:59:58;;;;;;;28.58;17.98;;;5.10;99.90;;;;;;5125184;28;20389;-68
2021/12/07 10:02:24;;;;;;;24.92;16.60;;;5.20;99.90;;;;;;5103848;28;20035;-68
2021/12/07 10:04:49;;;;;;;26.08;15.98;;;5.10;99.90;;;;;;5096330;28;20023;-67
2021/12/07 10:07:16;;;;;;;27.63;16.88;;;5.10;99.90;;;;;;5092633;28;20088;-67
2021/12/07 10:09:42;;;;;;;32.42;20.05;;;5.10;99.90;;;;;;5095441;28;20074;-70
2021/12/07 10:12:08;;;;;;;27.48;17.73;;;5.30;99.90;;;;;;5097070;28;20074;-70
2021/12/07 10:14:43;;;;;;;27.25;16.88;;;5.30;99.90;;;;;;5103086;28;20043;-67
2021/12/07 10:17:09;;;;;;;25.13;16.00;;;5.40;99.90;;;;;;5087060;28;20016;-68
2021/12/07 10:19:38;;;;;;;24.45;14.93;;;5.40;99.90;;;;;;5087914;28;20023;-68
2021/12/07 10:22:11;;;;;;;25.42;15.48;;;5.30;99.90;;;;;;5091473;28;20044;-66
2021/12/07 10:24:54;;;;;;;27.70;17.13;;;5.40;99.90;;;;;;5089829;28;20028;-70
2021/12/07 10:27:38;;;;;;;27.08;17.88;;;5.50;99.90;;;;;;5108235;28;20213;-70
2021/12/07 10:30:07;;;;;;;24.95;15.32;;;5.30;99.90;;;;;;5117938;28;20384;-68
2021/12/07 10:32:33;;;;;;;30.10;19.50;;;5.20;99.90;;;;;;5121226;28;20020;-68
2021/12/07 10:34:58;;;;;;;26.95;15.93;;;5.30;99.90;;;;;;5081780;28;20025;-67
2021/12/07 10:37:24;;;;;;;22.20;14.45;;;5.20;99.90;;;;;;5085185;28;20373;-68
2021/12/07 10:39:55;;;;;;;27.55;16.00;;;5.40;99.90;;;;;;5095221;28;20024;-65
2021/12/07 10:42:30;;;;;;;38.80;19.83;;;5.40;99.90;;;;;;5075728;28;20058;-66
2021/12/07 10:44:59;;;;;;;37.33;19.10;;;5.50;99.90;;;;;;5093371;28;20024;-68
2021/12/07 10:47:25;;;;;;;32.60;18.98;;;5.60;99.90;;;;;;5075623;28;20394;-69
2021/12/07 10:49:51;;;;;;;31.83;17.80;;;5.50;99.90;;;;;;5095149;28;20056;-65
2021/12/07 10:52:28;;;;;;;26.98;15.65;;;5.30;99.90;;;;;;5095064;28;20543;-62
2021/12/07 10:55:05;;;;;;;31.02;18.10;;;5.30;99.90;;;;;;5093996;28;20110;-63
2021/12/07 10:58:07;;;;;;;25.15;14.85;;;5.30;99.90;;;;;;5095538;28;20091;-62
2021/12/07 11:00:36;;;;;;;26.83;15.57;;;5.00;99.90;;;;;;5086476;28;20032;-68
2021/12/07 11:03:10;;;;;;;31.35;18.77;;;5.00;99.90;;;;;;5095257;28;20028;-67
2021/12/07 11:05:43;;;;;;;30.83;18.30;;;5.00;99.90;;;;;;5100538;28;20496;-67
2021/12/07 11:08:10;;;;;;;33.00;17.80;;;5.00;99.90;;;;;;5095275;28;20024;-69
2021/12/07 11:10:39;;;;;;;22.33;13.80;;;5.10;99.90;;;;;;5094686;28;20019;-68
2021/12/07 11:13:26;;;;;;;27.05;16.42;;;5.00;99.90;;;;;;5089337;28;20111;-65
2021/12/07 11:16:01;;;;;;;26.38;15.05;;;4.80;99.90;;;;;;5084472;28;20032;-65
2021/12/07 11:18:28;;;;;;;28.27;16.55;;;4.80;99.90;;;;;;5093604;28;20074;-65
2021/12/07 11:20:56;;;;;;;24.10;14.68;;;4.80;99.90;;;;;;5093677;28;20059;-65
2021/12/07 11:23:28;;;;;;;24.02;16.27;;;4.80;99.90;;;;;;5093844;28;20381;-63
2021/12/07 11:31:29;;;;;;;36.83;20.00;;;4.80;99.90;;;;;;5088362;28;20112;-64
2021/12/07 11:34:09;;;;;;;31.02;17.88;;;4.90;99.90;;;;;;5105082;28;20505;-65
2021/12/07 11:36:39;;;;;;;30.27;17.85;;;5.00;99.90;;;;;;5104979;28;20028;-63
2021/12/07 11:39:28;;;;;;;39.90;19.98;;;5.00;99.90;;;;;;5079615;28;20020;-63
2021/12/07 11:42:07;;;;;;;32.97;18.42;;;5.10;99.90;;;;;;5083723;28;20062;-65
2021/12/07 11:44:36;;;;;;;33.72;17.38;;;4.90;99.90;;;;;;5096013;28;20023;-64
2021/12/07 11:47:04;;;;;;;37.72;20.23;;;4.90;99.90;;;;;;5098839;28;20519;-64
2021/12/07 11:49:34;;;;;;;41.72;21.70;;;5.10;99.90;;;;;;5104070;28;20023;-64
2021/12/07 11:52:03;;;;;;;33.33;17.42;;;4.90;99.90;;;;;;5083061;28;20055;-63
2021/12/07 11:54:37;;;;;;;35.20;18.60;;;4.90;99.90;;;;;;5063542;28;20036;-62
2021/12/07 11:57:05;;;;;;;33.15;19.00;;;5.10;99.90;;;;;;5097859;28;20114;-62
2021/12/07 11:59:31;;;;;;;26.02;15.20;;;5.20;99.90;;;;;;5101333;28;20015;-61
2021/12/07 12:01:57;;;;;;;26.83;17.95;;;5.10;99.90;;;;;;5101812;28;20392;-62
2021/12/07 12:04:23;;;;;;;28.42;17.75;;;5.00;99.90;;;;;;5104031;28;20034;-62
2021/12/07 12:06:52;;;;;;;26.25;16.23;;;5.00;99.90;;;;;;5091138;28;20053;-62
2021/12/07 12:09:19;;;;;;;27.13;16.73;;;5.10;99.90;;;;;;5095776;28;20611;-62
2021/12/07 12:11:57;;;;;;;33.45;19.25;;;5.00;99.90;;;;;;5089958;28;20099;-62
2021/12/07 12:14:47;;;;;;;29.25;16.83;;;5.00;99.90;;;;;;5090311;28;20028;-61
2021/12/07 12:18:01;;;;;;;24.92;15.88;;;5.10;99.90;;;;;;5092720;28;20020;-62
2021/12/07 12:20:56;;;;;;;36.03;21.10;;;5.10;99.90;;;;;;5015128;28;20039;-63
2021/12/07 12:23:51;;;;;;;33.70;20.00;;;5.00;99.90;;;;;;5092057;28;20055;-61
2021/12/07 12:26:24;;;;;;;31.55;17.30;;;5.10;99.90;;;;;;5084806;28;20104;-63
2021/12/07 12:28:51;;;;;;;53.37;24.53;;;5.10;99.90;;;;;;5082852;28;20032;-63
2021/12/07 12:31:19;;;;;;;65.18;29.85;;;5.20;99.90;;;;;;5083037;28;20040;-65
2021/12/07 12:33:55;;;;;;;39.97;22.90;;;5.30;99.90;;;;;;5075324;28;20035;-63
2021/12/07 12:36:24;;;;;;;36.30;20.52;;;5.10;99.90;;;;;;5071903;28;20017;-63
2021/12/07 12:39:04;;;;;;;40.47;21.75;;;5.00;99.90;;;;;;5072298;28;20021;-60
2021/12/07 12:41:30;;;;;;;31.55;18.30;;;5.10;99.90;;;;;;5075928;28;20038;-57
2021/12/07 12:43:58;;;;;;;43.28;24.45;;;5.00;99.90;;;;;;5079746;28;20028;-61
2021/12/07 12:46:33;;;;;;;45.25;25.10;;;5.10;99.90;;;;;;5079712;28;20043;-62
2021/12/07 12:49:06;;;;;;;48.95;28.23;;;5.20;99.90;;;;;;5083547;28;20031;-56
2021/12/07 12:51:47;;;;;;;43.93;24.83;;;5.20;99.90;;;;;;5084438;28;20088;-62
2021/12/07 12:54:13;;;;;;;40.60;24.65;;;5.30;99.90;;;;;;5080630;28;20046;-60
